Georgia Highway — 7JCV — position and weather

sailwx.info

Track history (hours):
 
Tides and Currents Weather Stations Pressure Air Temp Water Temp Dewpoint Dewpoint Depression Visibility Wind Speed Wind Dir Waves Ship Positions

Georgia Highway

Last reported at 2018-Apr-17 12:38 UTC. Time now 2018-May-23 07:20 UTC.
Position N 35°02' E 140°34'.
Warning: this ship's position is 35 days out of date.

Length 200 m; draft 9 m.

Type: Cargo ship. MMSI: 432629000.

Date/timePositionNaut miles runAvg speedWind from/ knotsBaromVisibWave heightAir tempDewpointWater temp
2018-Apr-17 12:38N 35°02' E 140°34'216.7
2018-Apr-17 12:30N 35°01' E 140°31'816.0
2018-Apr-17 12:00N 34°58' E 140°23'815.5
2018-Apr-17 11:30N 34°54' E 140°14'815.5
2018-Apr-17 11:00N 34°52' E 140°05'1114.7
2018-Apr-17 10:15N 34°50' E 139°52'415.1
2018-Apr-17 10:00N 34°51' E 139°47'714.7
2018-Apr-17 09:30N 34°57' E 139°42'714.8
2018-Apr-17 09:00N 35°04' E 139°43'815.0
2018-Apr-17 08:30N 35°11' E 139°46'510.3
2018-Apr-17 08:00N 35°16' E 139°45'612.5
2018-Apr-17 07:30N 35°22' E 139°42'5 9.9
2018-Apr-17 07:00N 35°27' E 139°41'0 0.4
2018-Apr-17 06:29N 35°27' E 139°41'0 0.0
2018-Apr-17 06:00N 35°27' E 139°41'0 0.0
2018-Apr-17 05:29N 35°27' E 139°41'0 0.0
2018-Apr-17 05:00N 35°27' E 139°41'0 0.0
2018-Apr-17 04:29N 35°27' E 139°41'0 0.0
2018-Apr-17 04:00N 35°27' E 139°41'0 0.0
2018-Apr-17 03:29N 35°27' E 139°41'0 0.0
2018-Apr-17 02:59N 35°27' E 139°41'0 0.0
2018-Apr-17 02:29N 35°27' E 139°41'0 0.0
2018-Apr-17 01:56N 35°27' E 139°41'0 0.0
2018-Apr-17 01:30N 35°27' E 139°41'0 0.0
2018-Apr-17 01:00N 35°27' E 139°41'0 0.0
2018-Apr-17 00:30N 35°27' E 139°41'0 0.0
2018-Apr-17 00:00N 35°27' E 139°41'0 0.0
2018-Apr-16 23:30N 35°27' E 139°41'0 0.0
2018-Apr-16 22:59N 35°27' E 139°41'0 0.0
2018-Apr-16 22:29N 35°27' E 139°41'0 0.6
2018-Apr-16 22:00N 35°27' E 139°41'3 5.8
2018-Apr-16 21:30N 35°25' E 139°44'5 9.6
2018-Apr-16 21:00N 35°20' E 139°43'612.2
2018-Apr-16 20:30N 35°15' E 139°47'611.1
2018-Apr-16 20:00N 35°09' E 139°46'4 7.5
2018-Apr-16 19:30N 35°06' E 139°45'713.5
2018-Apr-16 19:00N 34°60' E 139°41'815.6
2018-Apr-16 18:30N 34°52' E 139°38'816.0
2018-Apr-16 18:00N 34°45' E 139°33'816.0
2018-Apr-16 17:30N 34°38' E 139°30'815.8
2018-Apr-16 17:00N 34°35' E 139°21'916.9
2018-Apr-16 16:30N 34°33' E 139°11'816.7
2018-Apr-16 16:00N 34°31' E 139°01'816.6
2018-Apr-16 15:30N 34°30' E 138°51'816.3
2018-Apr-16 15:00N 34°30' E 138°41'815.9
2018-Apr-16 14:29N 34°29' E 138°31'816.1
2018-Apr-16 14:00N 34°29' E 138°21'916.6
2018-Apr-16 13:29N 34°29' E 138°11'816.5
2018-Apr-16 12:58N 34°29' E 138°01'816.5
2018-Apr-16 12:29N 34°29' E 137°51'816.6
2018-Apr-16 11:59N 34°29' E 137°41'916.5
2018-Apr-16 11:25N 34°29' E 137°30'816.8
2018-Apr-16 10:57N 34°29' E 137°20'1713.0
2018-Apr-16 09:38N 34°34' E 137°00'311.4
2018-Apr-16 09:23N 34°35' E 136°58'3 8.2
2018-Apr-16 09:00N 34°38' E 136°60'612.4
2018-Apr-16 08:30N 34°41' E 137°06'714.8
2018-Apr-16 08:00N 34°44' E 137°15'3 0.4
2018-Apr-16 00:41N 34°43' E 137°18'0 0.0
2018-Apr-16 00:29N 34°43' E 137°18'0 0.0
2018-Apr-15 23:53N 34°43' E 137°18'0 0.0
2018-Apr-15 23:11N 34°43' E 137°18'0 0.0
2018-Apr-15 22:41N 34°43' E 137°18'0 0.0
2018-Apr-15 21:52N 34°43' E 137°18'0 1.1
2018-Apr-15 21:26N 34°44' E 137°18'4 8.7
2018-Apr-15 20:59N 34°44' E 137°13'1 2.2
2018-Apr-15 20:19N 34°44' E 137°12'0 0.1
2018-Apr-15 19:56N 34°44' E 137°12'0 0.0
2018-Apr-15 19:25N 34°44' E 137°12'0 0.1
2018-Apr-15 18:56N 34°44' E 137°12'0 0.1
2018-Apr-15 18:25N 34°44' E 137°12'0 0.1
2018-Apr-15 17:55N 34°44' E 137°12'0 0.1
2018-Apr-15 17:19N 34°44' E 137°12'0 0.0
2018-Apr-15 16:44N 34°44' E 137°12'0 0.0
2018-Apr-15 16:25N 34°44' E 137°12'0 0.0
2018-Apr-15 15:19N 34°44' E 137°12'0 0.1
2018-Apr-15 14:50N 34°44' E 137°12'0 0.1
2018-Apr-15 14:19N 34°44' E 137°12'0 0.1
2018-Apr-15 13:49N 34°44' E 137°12'0 0.0
2018-Apr-15 11:37N 34°44' E 137°12'0 0.3
2018-Apr-15 11:25N 34°44' E 137°12'0 0.0
2018-Apr-15 10:50N 34°44' E 137°12'0 0.0
2018-Apr-15 07:13N 34°44' E 137°12'0 0.0
2018-Apr-15 06:43N 34°44' E 137°12'0 0.0
2018-Apr-15 06:25N 34°44' E 137°12'0 0.0
2018-Apr-15 03:56N 34°44' E 137°12'0 0.0
2018-Apr-15 03:26N 34°44' E 137°12'0 0.0
2018-Apr-15 02:56N 34°44' E 137°12'0 0.0
2018-Apr-15 02:26N 34°44' E 137°12'0 0.0
2018-Apr-15 01:37N 34°44' E 137°12'0 0.1
2018-Apr-15 01:26N 34°44' E 137°12'0 0.0
2018-Apr-15 00:43N 34°44' E 137°12'0 0.0
2018-Apr-15 00:26N 34°44' E 137°12'0 0.0
2018-Apr-14 23:56N 34°44' E 137°12'0 0.0
2018-Apr-14 19:19N 34°44' E 137°12'0 0.1
2018-Apr-14 18:49N 34°45' E 137°12'0 0.0
2018-Apr-14 17:20N 34°44' E 137°12'0 0.0
2018-Apr-14 14:25N 34°44' E 137°12'0 0.0
2018-Apr-14 11:25N 34°44' E 137°12'0 0.0
2018-Apr-14 10:43N 34°44' E 137°12'0 0.1
2018-Apr-14 10:26N 34°44' E 137°12'0 0.0
2018-Apr-14 09:38N 34°44' E 137°12'0 0.0
2018-Apr-14 09:14N 34°44' E 137°12'0 0.0
2018-Apr-14 08:55N 34°44' E 137°12'0 0.0
2018-Apr-14 08:25N 34°44' E 137°12'0 0.1
2018-Apr-14 07:56N 34°44' E 137°12'0 0.1
2018-Apr-14 07:02N 34°44' E 137°12'0 0.2
2018-Apr-14 06:55N 34°44' E 137°12'0 0.0
2018-Apr-14 06:20N 34°44' E 137°12'0 0.0
2018-Apr-14 05:55N 34°44' E 137°12'0 0.0
2018-Apr-14 05:14N 34°44' E 137°12'0 0.0
2018-Apr-14 04:44N 34°44' E 137°12'0 0.0
2018-Apr-14 04:25N 34°44' E 137°12'0 0.0
2018-Apr-14 03:56N 34°44' E 137°12'0 0.0
2018-Apr-14 03:01N 34°44' E 137°12'0 0.0
2018-Apr-14 02:50N 34°44' E 137°12'0 0.0
2018-Apr-14 02:26N 34°44' E 137°12'0 0.0
2018-Apr-14 01:56N 34°44' E 137°12'0 0.0
2018-Apr-14 01:07N 34°44' E 137°12'0 0.2
2018-Apr-14 00:55N 34°44' E 137°12'0 0.1
2018-Apr-14 00:28N 34°44' E 137°12'0 0.0
2018-Apr-13 23:55N 34°44' E 137°12'0 0.0
2018-Apr-13 23:25N 34°44' E 137°12'0 0.0
2018-Apr-13 22:55N 34°44' E 137°12'0 0.1
2018-Apr-13 22:25N 34°44' E 137°12'0 0.0
2018-Apr-13 21:38N 34°44' E 137°12'0 0.0
2018-Apr-13 21:26N 34°44' E 137°12'0 0.0
2018-Apr-13 20:49N 34°44' E 137°12'0 0.1
2018-Apr-13 20:14N 34°44' E 137°12'0 0.0
2018-Apr-13 19:49N 34°44' E 137°12'0 0.0
2018-Apr-13 19:25N 34°44' E 137°12'0 0.0
2018-Apr-13 18:55N 34°44' E 137°12'0 0.0
2018-Apr-13 18:19N 34°44' E 137°12'0 0.0
2018-Apr-13 17:31N 34°44' E 137°12'0 0.0
2018-Apr-13 17:26N 34°44' E 137°12'0 0.0
2018-Apr-13 15:55N 34°44' E 137°12'0 0.0
2018-Apr-13 15:26N 34°44' E 137°12'0 0.0
2018-Apr-13 14:38N 34°44' E 137°12'0 0.0
2018-Apr-13 14:19N 34°44' E 137°12'0 0.0
2018-Apr-13 13:55N 34°44' E 137°12'0 0.0
2018-Apr-13 13:20N 34°44' E 137°12'0 0.0
2018-Apr-13 12:55N 34°44' E 137°12'0 0.0
2018-Apr-13 12:25N 34°44' E 137°12'0 0.0
2018-Apr-13 11:55N 34°44' E 137°12'0 0.1
2018-Apr-13 11:30N 34°44' E 137°12'3 5.4
2018-Apr-13 11:00N 34°43' E 137°09'714.0
2018-Apr-13 10:30N 34°39' E 137°02'815.5
2018-Apr-13 10:00N 34°42' E 136°53'816.8
2018-Apr-13 09:30N 34°48' E 136°46'917.2
2018-Apr-13 09:00N 34°56' E 136°47'612.8
2018-Apr-13 08:31N 35°02' E 136°51'1 2.8
2018-Apr-13 07:58N 35°03' E 136°51'0 0.0
2018-Apr-13 07:28N 35°03' E 136°51'0 0.0
2018-Apr-13 06:58N 35°03' E 136°51'0 0.0
2018-Apr-13 06:28N 35°03' E 136°51'0 0.0
2018-Apr-13 05:58N 35°03' E 136°51'0 0.0
2018-Apr-13 05:28N 35°03' E 136°51'0 0.0
2018-Apr-13 04:58N 35°03' E 136°51'0 0.0
2018-Apr-13 04:28N 35°03' E 136°51'0 0.0
2018-Apr-13 03:58N 35°03' E 136°51'0 0.0
2018-Apr-13 03:28N 35°03' E 136°51'0 0.0
2018-Apr-13 02:58N 35°03' E 136°51'0 0.0
2018-Apr-13 02:28N 35°03' E 136°51'0 0.0
2018-Apr-13 01:58N 35°03' E 136°51'0 0.0
2018-Apr-13 01:28N 35°03' E 136°51'0 0.0
2018-Apr-13 00:58N 35°03' E 136°51'0 0.0
2018-Apr-13 00:28N 35°03' E 136°51'0 0.0
2018-Apr-12 23:58N 35°03' E 136°51'0 0.0
2018-Apr-12 23:28N 35°03' E 136°51'0 0.0
2018-Apr-12 22:58N 35°03' E 136°51'0 0.1
2018-Apr-12 22:31N 35°03' E 136°51'0 0.9
2018-Apr-12 22:01N 35°03' E 136°51'3 5.9
2018-Apr-12 21:31N 34°60' E 136°50'611.1
2018-Apr-12 21:00N 34°55' E 136°47'612.9
2018-Apr-12 20:31N 34°49' E 136°48'917.1
2018-Apr-12 20:00N 34°41' E 136°53'815.4
2018-Apr-12 19:30N 34°35' E 136°59'611.0
2018-Apr-12 19:00N 34°31' E 137°04'4 8.3
2018-Apr-12 18:30N 34°27' E 137°05'3 6.1
2018-Apr-12 17:58N 34°24' E 137°05'9 9.3
2018-Apr-12 17:03N 34°16' E 137°06'1 9.4
2018-Apr-12 16:59N 34°15' E 137°06'213 8.2
2018-Apr-11 15:03N 32°35' E 133°20'120.5
2018-Apr-11 15:00N 32°35' E 133°19'7015.1
2018-Apr-11 10:23N 33°10' E 132°07'915.7
2018-Apr-11 09:49N 33°17' E 132°00'514.9
2018-Apr-11 09:28N 33°21' E 131°57'715.2
2018-Apr-11 09:01N 33°28' E 131°53'815.6
2018-Apr-11 08:30N 33°35' E 131°49'815.7
2018-Apr-11 08:01N 33°42' E 131°45'815.8
2018-Apr-11 07:30N 33°49' E 131°40'815.9
2018-Apr-11 07:01N 33°55' E 131°35'5 8.9
2018-Apr-11 06:25N 34°00' E 131°34'0 0.2
2018-Apr-11 06:00N 34°00' E 131°34'0 0.0
2018-Apr-11 05:18N 34°00' E 131°34'0 0.0
2018-Apr-11 04:48N 34°00' E 131°34'0 0.0
2018-Apr-11 04:30N 34°00' E 131°34'0 0.0
2018-Apr-11 03:54N 34°00' E 131°34'0 0.0
2018-Apr-11 03:30N 34°00' E 131°34'0 0.0
2018-Apr-11 03:00N 34°00' E 131°34'0 0.0
2018-Apr-11 02:24N 34°00' E 131°34'0 0.0
2018-Apr-11 02:00N 34°00' E 131°34'0 0.0
2018-Apr-11 01:27N 34°00' E 131°34'0 0.0
2018-Apr-11 01:00N 34°00' E 131°34'0 0.0
2018-Apr-11 00:30N 34°00' E 131°34'0 0.0
2018-Apr-11 00:00N 34°00' E 131°34'0 0.0
2018-Apr-10 23:30N 34°00' E 131°34'0 0.0
2018-Apr-10 23:00N 34°00' E 131°34'2 3.3
2018-Apr-10 22:30N 33°59' E 131°33'3 5.5
2018-Apr-10 22:00N 33°57' E 131°34'4 7.8
2018-Apr-10 21:30N 33°54' E 131°38'612.8
2018-Apr-10 21:00N 33°50' E 131°44'815.8
2018-Apr-10 20:30N 33°45' E 131°51'816.6
2018-Apr-10 20:00N 33°43' E 132°01'816.0
2018-Apr-10 19:30N 33°43' E 132°11'1015.4
2018-Apr-10 18:53N 33°46' E 132°21'614.7
2018-Apr-10 18:27N 33°49' E 132°28'714.4
2018-Apr-10 17:59N 33°52' E 132°35'613.4
2018-Apr-10 17:30N 33°59' E 132°34'713.5
2018-Apr-10 16:58N 34°02' E 132°27'815.7
2018-Apr-10 16:29N 34°08' E 132°21'714.6
2018-Apr-10 16:00N 34°15' E 132°21'612.3
2018-Apr-10 15:31N 34°20' E 132°26'3 5.1
2018-Apr-10 15:00N 34°19' E 132°28'0 0.1
2018-Apr-10 14:28N 34°19' E 132°28'0 0.0
2018-Apr-10 13:58N 34°19' E 132°28'0 0.0
2018-Apr-10 13:28N 34°19' E 132°28'0 0.0
2018-Apr-10 12:58N 34°19' E 132°28'0 0.0
2018-Apr-10 12:28N 34°19' E 132°28'0 0.0
2018-Apr-10 11:58N 34°19' E 132°28'0 0.0
2018-Apr-10 11:28N 34°19' E 132°28'0 0.0
2018-Apr-10 10:58N 34°19' E 132°28'0 0.0
2018-Apr-10 10:28N 34°19' E 132°28'0 0.0
2018-Apr-10 09:58N 34°19' E 132°28'0 0.0
2018-Apr-10 09:28N 34°19' E 132°28'0 0.0
2018-Apr-10 08:58N 34°19' E 132°28'0 0.0
2018-Apr-10 08:28N 34°19' E 132°28'0 0.1
2018-Apr-10 07:58N 34°19' E 132°28'0 0.0
2018-Apr-10 07:28N 34°19' E 132°28'0 0.1
2018-Apr-10 06:58N 34°19' E 132°29'0 0.0
2018-Apr-10 06:28N 34°19' E 132°29'0 0.0
2018-Apr-10 05:58N 34°19' E 132°29'0 0.1
2018-Apr-10 05:22N 34°19' E 132°28'0 0.0
2018-Apr-10 04:58N 34°19' E 132°28'0 0.0
2018-Apr-10 04:28N 34°19' E 132°28'0 0.0
2018-Apr-10 03:49N 34°19' E 132°28'0 0.0
2018-Apr-10 03:25N 34°19' E 132°28'0 0.0
2018-Apr-10 02:58N 34°19' E 132°28'0 0.0
2018-Apr-10 02:28N 34°19' E 132°28'0 0.0
2018-Apr-10 01:58N 34°19' E 132°28'0 0.0
2018-Apr-10 01:28N 34°19' E 132°28'0 0.0
2018-Apr-10 00:58N 34°19' E 132°28'0 0.0
2018-Apr-10 00:28N 34°19' E 132°28'0 0.0
2018-Apr-09 23:58N 34°19' E 132°28'0 0.0
2018-Apr-09 23:28N 34°19' E 132°28'0 0.0
2018-Apr-09 22:58N 34°19' E 132°28'0 0.0
2018-Apr-09 22:28N 34°19' E 132°28'0 0.0
2018-Apr-09 21:58N 34°19' E 132°28'0 0.0
2018-Apr-09 21:28N 34°19' E 132°28'0 0.0
2018-Apr-09 20:58N 34°19' E 132°28'0 0.0
2018-Apr-09 20:28N 34°19' E 132°28'0 0.0
2018-Apr-09 19:58N 34°19' E 132°28'0 0.0
2018-Apr-09 19:28N 34°19' E 132°28'0 0.0
2018-Apr-09 18:58N 34°19' E 132°28'0 0.0
2018-Apr-09 18:28N 34°19' E 132°28'0 0.0
2018-Apr-09 17:58N 34°19' E 132°28'0 0.0
2018-Apr-09 17:28N 34°19' E 132°28'0 0.0
2018-Apr-09 16:58N 34°19' E 132°28'0 0.0
2018-Apr-09 16:22N 34°19' E 132°28'0 0.0
2018-Apr-09 15:58N 34°19' E 132°28'0 0.0
2018-Apr-09 15:28N 34°19' E 132°28'0 0.0
2018-Apr-09 14:58N 34°19' E 132°28'0 0.0
2018-Apr-09 14:28N 34°19' E 132°28'0 0.0
2018-Apr-09 13:58N 34°19' E 132°28'0 0.0
2018-Apr-09 13:28N 34°19' E 132°28'0 0.0
2018-Apr-09 12:58N 34°19' E 132°28'0 0.0
2018-Apr-09 12:25N 34°19' E 132°28'0 0.0
2018-Apr-09 11:58N 34°19' E 132°28'0 0.0
2018-Apr-09 11:28N 34°19' E 132°28'0 0.0
2018-Apr-09 10:58N 34°19' E 132°28'0 0.0
2018-Apr-09 10:28N 34°19' E 132°28'0 0.0
2018-Apr-09 09:58N 34°19' E 132°28'0 0.0
2018-Apr-09 09:28N 34°19' E 132°28'0 0.0
2018-Apr-09 08:58N 34°19' E 132°28'0 0.0
2018-Apr-09 08:28N 34°19' E 132°28'0 0.0
2018-Apr-09 07:58N 34°19' E 132°28'0 0.0
2018-Apr-09 07:29N 34°19' E 132°28'3 0.3
2018-Apr-08 22:00N 34°21' E 132°29'1 2.7
2018-Apr-08 21:29N 34°20' E 132°28'3 6.3
2018-Apr-08 21:00N 34°20' E 132°24'3 6.8
2018-Apr-08 20:30N 34°17' E 132°21'612.6
2018-Apr-08 20:00N 34°11' E 132°20'611.6
2018-Apr-08 19:30N 34°06' E 132°24'510.9
2018-Apr-08 19:00N 34°02' E 132°28'611.2
2018-Apr-08 18:30N 34°00' E 132°34'713.7
2018-Apr-08 18:00N 33°54' E 132°36'713.0
2018-Apr-08 17:28N 33°48' E 132°31'613.4
2018-Apr-08 17:00N 33°44' E 132°25'1313.6
2018-Apr-08 16:01N 33°36' E 132°12'313.4
2018-Apr-08 15:49N 33°34' E 132°10'514.2
2018-Apr-08 15:26N 33°30' E 132°05'614.4
2018-Apr-08 15:00N 33°26' E 132°00'714.8
2018-Apr-08 14:30N 33°18' E 132°01'816.4
2018-Apr-08 14:00N 33°12' E 132°07'  
Track history (hours):
 
Tides and Currents Weather Stations Pressure Air Temp Water Temp Dewpoint Dewpoint Depression Visibility Wind Speed Wind Dir Waves Ship Positions

Georgia Highway

Last reported at 2018-Apr-17 12:38 UTC. Time now 2018-May-23 07:20 UTC.
Position N 35°02' E 140°34'.
Warning: this ship's position is 35 days out of date.

Length 200 m; draft 9 m.

Type: Cargo ship. MMSI: 432629000.

Date/timePositionNaut miles runAvg speedWind from/ knotsBaromVisibWave heightAir tempDewpointWater temp
2018-Apr-17 12:38N 35°02' E 140°34'216.7
2018-Apr-17 12:30N 35°01' E 140°31'816.0
2018-Apr-17 12:00N 34°58' E 140°23'815.5
2018-Apr-17 11:30N 34°54' E 140°14'815.5
2018-Apr-17 11:00N 34°52' E 140°05'1114.7
2018-Apr-17 10:15N 34°50' E 139°52'415.1
2018-Apr-17 10:00N 34°51' E 139°47'714.7
2018-Apr-17 09:30N 34°57' E 139°42'714.8
2018-Apr-17 09:00N 35°04' E 139°43'815.0
2018-Apr-17 08:30N 35°11' E 139°46'510.3
2018-Apr-17 08:00N 35°16' E 139°45'612.5
2018-Apr-17 07:30N 35°22' E 139°42'5 9.9
2018-Apr-17 07:00N 35°27' E 139°41'0 0.4
2018-Apr-17 06:29N 35°27' E 139°41'0 0.0
2018-Apr-17 06:00N 35°27' E 139°41'0 0.0
2018-Apr-17 05:29N 35°27' E 139°41'0 0.0
2018-Apr-17 05:00N 35°27' E 139°41'0 0.0
2018-Apr-17 04:29N 35°27' E 139°41'0 0.0
2018-Apr-17 04:00N 35°27' E 139°41'0 0.0
2018-Apr-17 03:29N 35°27' E 139°41'0 0.0
2018-Apr-17 02:59N 35°27' E 139°41'0 0.0
2018-Apr-17 02:29N 35°27' E 139°41'0 0.0
2018-Apr-17 01:56N 35°27' E 139°41'0 0.0
2018-Apr-17 01:30N 35°27' E 139°41'0 0.0
2018-Apr-17 01:00N 35°27' E 139°41'0 0.0
2018-Apr-17 00:30N 35°27' E 139°41'0 0.0
2018-Apr-17 00:00N 35°27' E 139°41'0 0.0
2018-Apr-16 23:30N 35°27' E 139°41'0 0.0
2018-Apr-16 22:59N 35°27' E 139°41'0 0.0
2018-Apr-16 22:29N 35°27' E 139°41'0 0.6
2018-Apr-16 22:00N 35°27' E 139°41'3 5.8
2018-Apr-16 21:30N 35°25' E 139°44'5 9.6
2018-Apr-16 21:00N 35°20' E 139°43'612.2
2018-Apr-16 20:30N 35°15' E 139°47'611.1
2018-Apr-16 20:00N 35°09' E 139°46'4 7.5
2018-Apr-16 19:30N 35°06' E 139°45'713.5
2018-Apr-16 19:00N 34°60' E 139°41'815.6
2018-Apr-16 18:30N 34°52' E 139°38'816.0
2018-Apr-16 18:00N 34°45' E 139°33'816.0
2018-Apr-16 17:30N 34°38' E 139°30'815.8
2018-Apr-16 17:00N 34°35' E 139°21'916.9
2018-Apr-16 16:30N 34°33' E 139°11'816.7
2018-Apr-16 16:00N 34°31' E 139°01'816.6
2018-Apr-16 15:30N 34°30' E 138°51'816.3
2018-Apr-16 15:00N 34°30' E 138°41'815.9
2018-Apr-16 14:29N 34°29' E 138°31'816.1
2018-Apr-16 14:00N 34°29' E 138°21'916.6
2018-Apr-16 13:29N 34°29' E 138°11'816.5
2018-Apr-16 12:58N 34°29' E 138°01'816.5
2018-Apr-16 12:29N 34°29' E 137°51'816.6
2018-Apr-16 11:59N 34°29' E 137°41'916.5
2018-Apr-16 11:25N 34°29' E 137°30'816.8
2018-Apr-16 10:57N 34°29' E 137°20'1713.0
2018-Apr-16 09:38N 34°34' E 137°00'311.4
2018-Apr-16 09:23N 34°35' E 136°58'3 8.2
2018-Apr-16 09:00N 34°38' E 136°60'612.4
2018-Apr-16 08:30N 34°41' E 137°06'714.8
2018-Apr-16 08:00N 34°44' E 137°15'3 0.4
2018-Apr-16 00:41N 34°43' E 137°18'0 0.0
2018-Apr-16 00:29N 34°43' E 137°18'0 0.0
2018-Apr-15 23:53N 34°43' E 137°18'0 0.0
2018-Apr-15 23:11N 34°43' E 137°18'0 0.0
2018-Apr-15 22:41N 34°43' E 137°18'0 0.0
2018-Apr-15 21:52N 34°43' E 137°18'0 1.1
2018-Apr-15 21:26N 34°44' E 137°18'4 8.7
2018-Apr-15 20:59N 34°44' E 137°13'1 2.2
2018-Apr-15 20:19N 34°44' E 137°12'0 0.1
2018-Apr-15 19:56N 34°44' E 137°12'0 0.0
2018-Apr-15 19:25N 34°44' E 137°12'0 0.1
2018-Apr-15 18:56N 34°44' E 137°12'0 0.1
2018-Apr-15 18:25N 34°44' E 137°12'0 0.1
2018-Apr-15 17:55N 34°44' E 137°12'0 0.1
2018-Apr-15 17:19N 34°44' E 137°12'0 0.0
2018-Apr-15 16:44N 34°44' E 137°12'0 0.0
2018-Apr-15 16:25N 34°44' E 137°12'0 0.0
2018-Apr-15 15:19N 34°44' E 137°12'0 0.1
2018-Apr-15 14:50N 34°44' E 137°12'0 0.1
2018-Apr-15 14:19N 34°44' E 137°12'0 0.1
2018-Apr-15 13:49N 34°44' E 137°12'0 0.0
2018-Apr-15 11:37N 34°44' E 137°12'0 0.3
2018-Apr-15 11:25N 34°44' E 137°12'0 0.0
2018-Apr-15 10:50N 34°44' E 137°12'0 0.0
2018-Apr-15 07:13N 34°44' E 137°12'0 0.0
2018-Apr-15 06:43N 34°44' E 137°12'0 0.0
2018-Apr-15 06:25N 34°44' E 137°12'0 0.0
2018-Apr-15 03:56N 34°44' E 137°12'0 0.0
2018-Apr-15 03:26N 34°44' E 137°12'0 0.0
2018-Apr-15 02:56N 34°44' E 137°12'0 0.0
2018-Apr-15 02:26N 34°44' E 137°12'0 0.0
2018-Apr-15 01:37N 34°44' E 137°12'0 0.1
2018-Apr-15 01:26N 34°44' E 137°12'0 0.0
2018-Apr-15 00:43N 34°44' E 137°12'0 0.0
2018-Apr-15 00:26N 34°44' E 137°12'0 0.0
2018-Apr-14 23:56N 34°44' E 137°12'0 0.0
2018-Apr-14 19:19N 34°44' E 137°12'0 0.1
2018-Apr-14 18:49N 34°45' E 137°12'0 0.0
2018-Apr-14 17:20N 34°44' E 137°12'0 0.0
2018-Apr-14 14:25N 34°44' E 137°12'0 0.0
2018-Apr-14 11:25N 34°44' E 137°12'0 0.0
2018-Apr-14 10:43N 34°44' E 137°12'0 0.1
2018-Apr-14 10:26N 34°44' E 137°12'0 0.0
2018-Apr-14 09:38N 34°44' E 137°12'0 0.0
2018-Apr-14 09:14N 34°44' E 137°12'0 0.0
2018-Apr-14 08:55N 34°44' E 137°12'0 0.0
2018-Apr-14 08:25N 34°44' E 137°12'0 0.1
2018-Apr-14 07:56N 34°44' E 137°12'0 0.1
2018-Apr-14 07:02N 34°44' E 137°12'0 0.2
2018-Apr-14 06:55N 34°44' E 137°12'0 0.0
2018-Apr-14 06:20N 34°44' E 137°12'0 0.0
2018-Apr-14 05:55N 34°44' E 137°12'0 0.0
2018-Apr-14 05:14N 34°44' E 137°12'0 0.0
2018-Apr-14 04:44N 34°44' E 137°12'0 0.0
2018-Apr-14 04:25N 34°44' E 137°12'0 0.0
2018-Apr-14 03:56N 34°44' E 137°12'0 0.0
2018-Apr-14 03:01N 34°44' E 137°12'0 0.0
2018-Apr-14 02:50N 34°44' E 137°12'0 0.0
2018-Apr-14 02:26N 34°44' E 137°12'0 0.0
2018-Apr-14 01:56N 34°44' E 137°12'0 0.0
2018-Apr-14 01:07N 34°44' E 137°12'0 0.2
2018-Apr-14 00:55N 34°44' E 137°12'0 0.1
2018-Apr-14 00:28N 34°44' E 137°12'0 0.0
2018-Apr-13 23:55N 34°44' E 137°12'0 0.0
2018-Apr-13 23:25N 34°44' E 137°12'0 0.0
2018-Apr-13 22:55N 34°44' E 137°12'0 0.1
2018-Apr-13 22:25N 34°44' E 137°12'0 0.0
2018-Apr-13 21:38N 34°44' E 137°12'0 0.0
2018-Apr-13 21:26N 34°44' E 137°12'0 0.0
2018-Apr-13 20:49N 34°44' E 137°12'0 0.1
2018-Apr-13 20:14N 34°44' E 137°12'0 0.0
2018-Apr-13 19:49N 34°44' E 137°12'0 0.0
2018-Apr-13 19:25N 34°44' E 137°12'0 0.0
2018-Apr-13 18:55N 34°44' E 137°12'0 0.0
2018-Apr-13 18:19N 34°44' E 137°12'0 0.0
2018-Apr-13 17:31N 34°44' E 137°12'0 0.0
2018-Apr-13 17:26N 34°44' E 137°12'0 0.0
2018-Apr-13 15:55N 34°44' E 137°12'0 0.0
2018-Apr-13 15:26N 34°44' E 137°12'0 0.0
2018-Apr-13 14:38N 34°44' E 137°12'0 0.0
2018-Apr-13 14:19N 34°44' E 137°12'0 0.0
2018-Apr-13 13:55N 34°44' E 137°12'0 0.0
2018-Apr-13 13:20N 34°44' E 137°12'0 0.0
2018-Apr-13 12:55N 34°44' E 137°12'0 0.0
2018-Apr-13 12:25N 34°44' E 137°12'0 0.0
2018-Apr-13 11:55N 34°44' E 137°12'0 0.1
2018-Apr-13 11:30N 34°44' E 137°12'3 5.4
2018-Apr-13 11:00N 34°43' E 137°09'714.0
2018-Apr-13 10:30N 34°39' E 137°02'815.5
2018-Apr-13 10:00N 34°42' E 136°53'816.8
2018-Apr-13 09:30N 34°48' E 136°46'917.2
2018-Apr-13 09:00N 34°56' E 136°47'612.8
2018-Apr-13 08:31N 35°02' E 136°51'1 2.8
2018-Apr-13 07:58N 35°03' E 136°51'0 0.0
2018-Apr-13 07:28N 35°03' E 136°51'0 0.0
2018-Apr-13 06:58N 35°03' E 136°51'0 0.0
2018-Apr-13 06:28N 35°03' E 136°51'0 0.0
2018-Apr-13 05:58N 35°03' E 136°51'0 0.0
2018-Apr-13 05:28N 35°03' E 136°51'0 0.0
2018-Apr-13 04:58N 35°03' E 136°51'0 0.0
2018-Apr-13 04:28N 35°03' E 136°51'0 0.0
2018-Apr-13 03:58N 35°03' E 136°51'0 0.0
2018-Apr-13 03:28N 35°03' E 136°51'0 0.0
2018-Apr-13 02:58N 35°03' E 136°51'0 0.0
2018-Apr-13 02:28N 35°03' E 136°51'0 0.0
2018-Apr-13 01:58N 35°03' E 136°51'0 0.0
2018-Apr-13 01:28N 35°03' E 136°51'0 0.0
2018-Apr-13 00:58N 35°03' E 136°51'0 0.0
2018-Apr-13 00:28N 35°03' E 136°51'0 0.0
2018-Apr-12 23:58N 35°03' E 136°51'0 0.0
2018-Apr-12 23:28N 35°03' E 136°51'0 0.0
2018-Apr-12 22:58N 35°03' E 136°51'0 0.1
2018-Apr-12 22:31N 35°03' E 136°51'0 0.9
2018-Apr-12 22:01N 35°03' E 136°51'3 5.9
2018-Apr-12 21:31N 34°60' E 136°50'611.1
2018-Apr-12 21:00N 34°55' E 136°47'612.9
2018-Apr-12 20:31N 34°49' E 136°48'917.1
2018-Apr-12 20:00N 34°41' E 136°53'815.4
2018-Apr-12 19:30N 34°35' E 136°59'611.0
2018-Apr-12 19:00N 34°31' E 137°04'4 8.3
2018-Apr-12 18:30N 34°27' E 137°05'3 6.1
2018-Apr-12 17:58N 34°24' E 137°05'9 9.3
2018-Apr-12 17:03N 34°16' E 137°06'1 9.4
2018-Apr-12 16:59N 34°15' E 137°06'213 8.2
2018-Apr-11 15:03N 32°35' E 133°20'120.5
2018-Apr-11 15:00N 32°35' E 133°19'7015.1
2018-Apr-11 10:23N 33°10' E 132°07'915.7
2018-Apr-11 09:49N 33°17' E 132°00'514.9
2018-Apr-11 09:28N 33°21' E 131°57'715.2
2018-Apr-11 09:01N 33°28' E 131°53'815.6
2018-Apr-11 08:30N 33°35' E 131°49'815.7
2018-Apr-11 08:01N 33°42' E 131°45'815.8
2018-Apr-11 07:30N 33°49' E 131°40'815.9
2018-Apr-11 07:01N 33°55' E 131°35'5 8.9
2018-Apr-11 06:25N 34°00' E 131°34'0 0.2
2018-Apr-11 06:00N 34°00' E 131°34'0 0.0
2018-Apr-11 05:18N 34°00' E 131°34'0 0.0
2018-Apr-11 04:48N 34°00' E 131°34'0 0.0
2018-Apr-11 04:30N 34°00' E 131°34'0 0.0
2018-Apr-11 03:54N 34°00' E 131°34'0 0.0
2018-Apr-11 03:30N 34°00' E 131°34'0 0.0
2018-Apr-11 03:00N 34°00' E 131°34'0 0.0
2018-Apr-11 02:24N 34°00' E 131°34'0 0.0
2018-Apr-11 02:00N 34°00' E 131°34'0 0.0
2018-Apr-11 01:27N 34°00' E 131°34'0 0.0
2018-Apr-11 01:00N 34°00' E 131°34'0 0.0
2018-Apr-11 00:30N 34°00' E 131°34'0 0.0
2018-Apr-11 00:00N 34°00' E 131°34'0 0.0
2018-Apr-10 23:30N 34°00' E 131°34'0 0.0
2018-Apr-10 23:00N 34°00' E 131°34'2 3.3
2018-Apr-10 22:30N 33°59' E 131°33'3 5.5
2018-Apr-10 22:00N 33°57' E 131°34'4 7.8
2018-Apr-10 21:30N 33°54' E 131°38'612.8
2018-Apr-10 21:00N 33°50' E 131°44'815.8
2018-Apr-10 20:30N 33°45' E 131°51'816.6
2018-Apr-10 20:00N 33°43' E 132°01'816.0
2018-Apr-10 19:30N 33°43' E 132°11'1015.4
2018-Apr-10 18:53N 33°46' E 132°21'614.7
2018-Apr-10 18:27N 33°49' E 132°28'714.4
2018-Apr-10 17:59N 33°52' E 132°35'613.4
2018-Apr-10 17:30N 33°59' E 132°34'713.5
2018-Apr-10 16:58N 34°02' E 132°27'815.7
2018-Apr-10 16:29N 34°08' E 132°21'714.6
2018-Apr-10 16:00N 34°15' E 132°21'612.3
2018-Apr-10 15:31N 34°20' E 132°26'3 5.1
2018-Apr-10 15:00N 34°19' E 132°28'0 0.1
2018-Apr-10 14:28N 34°19' E 132°28'0 0.0
2018-Apr-10 13:58N 34°19' E 132°28'0 0.0
2018-Apr-10 13:28N 34°19' E 132°28'0 0.0
2018-Apr-10 12:58N 34°19' E 132°28'0 0.0
2018-Apr-10 12:28N 34°19' E 132°28'0 0.0
2018-Apr-10 11:58N 34°19' E 132°28'0 0.0
2018-Apr-10 11:28N 34°19' E 132°28'0 0.0
2018-Apr-10 10:58N 34°19' E 132°28'0 0.0
2018-Apr-10 10:28N 34°19' E 132°28'0 0.0
2018-Apr-10 09:58N 34°19' E 132°28'0 0.0
2018-Apr-10 09:28N 34°19' E 132°28'0 0.0
2018-Apr-10 08:58N 34°19' E 132°28'0 0.0
2018-Apr-10 08:28N 34°19' E 132°28'0 0.1
2018-Apr-10 07:58N 34°19' E 132°28'0 0.0
2018-Apr-10 07:28N 34°19' E 132°28'0 0.1
2018-Apr-10 06:58N 34°19' E 132°29'0 0.0
2018-Apr-10 06:28N 34°19' E 132°29'0 0.0
2018-Apr-10 05:58N 34°19' E 132°29'0 0.1
2018-Apr-10 05:22N 34°19' E 132°28'0 0.0
2018-Apr-10 04:58N 34°19' E 132°28'0 0.0
2018-Apr-10 04:28N 34°19' E 132°28'0 0.0
2018-Apr-10 03:49N 34°19' E 132°28'0 0.0
2018-Apr-10 03:25N 34°19' E 132°28'0 0.0
2018-Apr-10 02:58N 34°19' E 132°28'0 0.0
2018-Apr-10 02:28N 34°19' E 132°28'0 0.0
2018-Apr-10 01:58N 34°19' E 132°28'0 0.0
2018-Apr-10 01:28N 34°19' E 132°28'0 0.0
2018-Apr-10 00:58N 34°19' E 132°28'0 0.0
2018-Apr-10 00:28N 34°19' E 132°28'0 0.0
2018-Apr-09 23:58N 34°19' E 132°28'0 0.0
2018-Apr-09 23:28N 34°19' E 132°28'0 0.0
2018-Apr-09 22:58N 34°19' E 132°28'0 0.0
2018-Apr-09 22:28N 34°19' E 132°28'0 0.0
2018-Apr-09 21:58N 34°19' E 132°28'0 0.0
2018-Apr-09 21:28N 34°19' E 132°28'0 0.0
2018-Apr-09 20:58N 34°19' E 132°28'0 0.0
2018-Apr-09 20:28N 34°19' E 132°28'0 0.0
2018-Apr-09 19:58N 34°19' E 132°28'0 0.0
2018-Apr-09 19:28N 34°19' E 132°28'0 0.0
2018-Apr-09 18:58N 34°19' E 132°28'0 0.0
2018-Apr-09 18:28N 34°19' E 132°28'0 0.0
2018-Apr-09 17:58N 34°19' E 132°28'0 0.0
2018-Apr-09 17:28N 34°19' E 132°28'0 0.0
2018-Apr-09 16:58N 34°19' E 132°28'0 0.0
2018-Apr-09 16:22N 34°19' E 132°28'0 0.0
2018-Apr-09 15:58N 34°19' E 132°28'0 0.0
2018-Apr-09 15:28N 34°19' E 132°28'0 0.0
2018-Apr-09 14:58N 34°19' E 132°28'0 0.0
2018-Apr-09 14:28N 34°19' E 132°28'0 0.0
2018-Apr-09 13:58N 34°19' E 132°28'0 0.0
2018-Apr-09 13:28N 34°19' E 132°28'0 0.0
2018-Apr-09 12:58N 34°19' E 132°28'0 0.0
2018-Apr-09 12:25N 34°19' E 132°28'0 0.0
2018-Apr-09 11:58N 34°19' E 132°28'0 0.0
2018-Apr-09 11:28N 34°19' E 132°28'0 0.0
2018-Apr-09 10:58N 34°19' E 132°28'0 0.0
2018-Apr-09 10:28N 34°19' E 132°28'0 0.0
2018-Apr-09 09:58N 34°19' E 132°28'0 0.0
2018-Apr-09 09:28N 34°19' E 132°28'0 0.0
2018-Apr-09 08:58N 34°19' E 132°28'0 0.0
2018-Apr-09 08:28N 34°19' E 132°28'0 0.0
2018-Apr-09 07:58N 34°19' E 132°28'0 0.0
2018-Apr-09 07:29N 34°19' E 132°28'3 0.3
2018-Apr-08 22:00N 34°21' E 132°29'1 2.7
2018-Apr-08 21:29N 34°20' E 132°28'3 6.3
2018-Apr-08 21:00N 34°20' E 132°24'3 6.8
2018-Apr-08 20:30N 34°17' E 132°21'612.6
2018-Apr-08 20:00N 34°11' E 132°20'611.6
2018-Apr-08 19:30N 34°06' E 132°24'510.9
2018-Apr-08 19:00N 34°02' E 132°28'611.2
2018-Apr-08 18:30N 34°00' E 132°34'713.7
2018-Apr-08 18:00N 33°54' E 132°36'713.0
2018-Apr-08 17:28N 33°48' E 132°31'613.4
2018-Apr-08 17:00N 33°44' E 132°25'1313.6
2018-Apr-08 16:01N 33°36' E 132°12'313.4
2018-Apr-08 15:49N 33°34' E 132°10'514.2
2018-Apr-08 15:26N 33°30' E 132°05'614.4
2018-Apr-08 15:00N 33°26' E 132°00'714.8
2018-Apr-08 14:30N 33°18' E 132°01'816.4
2018-Apr-08 14:00N 33°12' E 132°07'  

Dump ship's entire track history